createdAt,value
2023-05-09T00:01:54.685Z,100122.26
2023-05-09T00:04:22.668Z,100119.48
2023-05-09T00:06:50.742Z,100117.77
2023-05-09T00:09:18.981Z,100117.09
2023-05-09T00:11:46.980Z,100116.80
2023-05-09T00:14:14.971Z,100117.01
2023-05-09T00:16:43.026Z,100115.84
2023-05-09T00:19:11.294Z,100111.17
2023-05-09T00:21:39.355Z,100104.60
2023-05-09T00:24:07.338Z,100099.76
2023-05-09T00:26:35.282Z,100096.83
2023-05-09T00:29:03.177Z,100095.27
2023-05-09T00:31:31.584Z,100092.17
2023-05-09T00:33:59.491Z,100089.77
2023-05-09T00:36:27.403Z,100091.89
2023-05-09T00:38:55.447Z,100091.05
2023-05-09T00:41:23.380Z,100088.63
2023-05-09T00:43:51.257Z,100083.95
2023-05-09T00:46:19.299Z,100080.86
2023-05-09T00:48:47.362Z,100080.73
2023-05-09T00:51:15.940Z,100077.63
2023-05-09T00:53:45.353Z,100077.31
2023-05-09T00:56:14.833Z,100075.09
2023-05-09T00:58:43.630Z,100072.17
2023-05-09T01:01:12.175Z,100070.48
2023-05-09T01:03:41.617Z,100071.39
2023-05-09T01:06:41.288Z,100069.50
2023-05-09T01:10:02.780Z,100070.92
2023-05-09T01:12:36.487Z,100070.44
2023-05-09T01:15:08.812Z,100066.65
2023-05-09T01:18:08.014Z,100064.59
2023-05-09T01:20:47.314Z,100064.30
2023-05-09T01:23:33.370Z,100062.77
2023-05-09T01:26:33.513Z,100065.95
2023-05-09T01:29:19.569Z,100061.44
2023-05-09T01:31:49.311Z,100063.73
2023-05-09T01:34:18.644Z,100059.77
2023-05-09T01:36:49.199Z,100063.98
2023-05-09T01:39:19.239Z,100065.21
2023-05-09T01:41:49.671Z,100065.23
2023-05-09T01:44:18.599Z,100065.76
2023-05-09T01:46:47.652Z,100061.95
2023-05-09T01:49:18.347Z,100058.66
2023-05-09T01:51:48.282Z,100054.69
2023-05-09T01:54:17.731Z,100052.09
2023-05-09T01:56:46.930Z,100054.91
2023-05-09T01:59:16.448Z,100056.51
2023-05-09T02:01:46.958Z,100053.60
2023-05-09T02:04:17.230Z,100048.59
2023-05-09T02:06:50.676Z,100047.24
2023-05-09T02:09:20.207Z,100047.61
2023-05-09T02:11:48.137Z,100046.61
2023-05-09T02:14:16.107Z,100044.90
2023-05-09T02:16:44.353Z,100044.41
2023-05-09T02:19:12.268Z,100044.10
2023-05-09T02:21:41.357Z,100045.02
2023-05-09T02:24:09.620Z,100042.42
2023-05-09T02:26:38.591Z,100039.34
2023-05-09T02:29:07.847Z,100034.84
2023-05-09T02:31:36.939Z,100032.77
2023-05-09T02:34:05.645Z,100030.91
2023-05-09T02:36:36.246Z,100031.11
2023-05-09T02:39:04.200Z,100030.95
2023-05-09T02:41:32.089Z,100029.95
2023-05-09T02:44:00.098Z,100030.64
2023-05-09T02:46:28.109Z,100030.31
2023-05-09T02:48:56.089Z,100027.02
2023-05-09T02:51:25.197Z,100030.34
2023-05-09T02:53:53.190Z,100032.80
2023-05-09T02:56:21.406Z,100028.29
2023-05-09T02:58:51.436Z,100026.05
2023-05-09T03:01:19.752Z,100028.69
2023-05-09T03:03:47.867Z,100029.23
2023-05-09T03:06:16.456Z,100029.27
2023-05-09T03:08:44.409Z,100030.39
2023-05-09T03:11:13.779Z,100027.13
2023-05-09T03:13:42.566Z,100026.44
2023-05-09T03:16:14.681Z,100021.38
2023-05-09T03:18:42.930Z,100016.15
2023-05-09T03:21:11.096Z,100013.36
2023-05-09T03:23:39.951Z,100014.56
2023-05-09T03:26:07.930Z,100009.48
2023-05-09T03:28:36.894Z,100007.35
2023-05-09T03:31:06.370Z,100007.81
2023-05-09T03:33:34.403Z,100005.09
2023-05-09T03:36:02.785Z,100002.30
2023-05-09T03:38:30.680Z,100001.34
2023-05-09T03:40:58.773Z,100004.48
2023-05-09T03:43:27.102Z,100003.90
2023-05-09T03:45:55.002Z,100006.42
2023-05-09T03:48:23.449Z,100005.25
2023-05-09T03:50:52.353Z,100003.77
2023-05-09T03:53:20.766Z,100003.98
2023-05-09T03:55:49.855Z,100001.73
2023-05-09T03:58:19.429Z,100005.16
2023-05-09T04:00:47.869Z,100001.02
2023-05-09T04:03:18.047Z,99997.32
2023-05-09T04:05:47.784Z,99993.38
2023-05-09T04:08:24.342Z,99992.04
2023-05-09T04:10:53.090Z,99991.29
2023-05-09T04:13:21.375Z,99992.09
2023-05-09T04:15:49.826Z,99990.95
2023-05-09T04:18:17.815Z,99991.94
2023-05-09T04:20:46.463Z,99988.19
2023-05-09T04:23:15.258Z,99985.27
2023-05-09T04:25:43.821Z,99988.92
2023-05-09T04:28:11.895Z,99985.70
2023-05-09T04:30:40.303Z,99982.85
2023-05-09T04:33:08.392Z,99988.95
2023-05-09T04:35:36.390Z,99981.84
2023-05-09T04:38:04.951Z,99975.55
2023-05-09T04:40:33.319Z,99969.80
2023-05-09T04:43:01.580Z,99972.86
2023-05-09T04:45:31.903Z,99974.86
2023-05-09T04:48:00.836Z,99970.51
2023-05-09T04:50:30.260Z,99970.44
2023-05-09T04:52:58.109Z,99970.16
2023-05-09T04:55:26.347Z,99970.66
2023-05-09T04:57:54.862Z,99970.11
2023-05-09T05:00:22.964Z,99967.23
2023-05-09T05:02:51.268Z,99963.56
2023-05-09T05:05:25.197Z,99965.36
2023-05-09T05:07:54.337Z,99965.90
2023-05-09T05:10:24.122Z,99966.80
2023-05-09T05:12:55.692Z,99968.58
2023-05-09T05:15:24.712Z,99967.24
2023-05-09T05:17:52.982Z,99964.48
2023-05-09T05:20:22.805Z,99961.59
2023-05-09T05:22:51.668Z,99964.73
2023-05-09T05:25:20.158Z,99964.73
2023-05-09T05:27:48.757Z,99966.17
2023-05-09T05:30:17.199Z,99964.70
2023-05-09T05:32:45.840Z,99959.63
2023-05-09T05:35:15.150Z,99959.41
2023-05-09T05:37:44.294Z,99958.12
2023-05-09T05:40:12.481Z,99957.94
2023-05-09T05:42:42.272Z,99960.08
2023-05-09T05:45:12.456Z,99950.90
2023-05-09T05:47:42.266Z,99952.61
2023-05-09T05:50:12.173Z,99949.69
2023-05-09T05:52:41.616Z,99947.17
2023-05-09T05:55:11.632Z,99942.46
2023-05-09T05:57:39.726Z,99939.12
2023-05-09T06:00:11.411Z,99940.39
2023-05-09T06:02:45.413Z,99938.52
2023-05-09T06:05:18.961Z,99939.51
2023-05-09T06:07:47.052Z,99937.26
2023-05-09T06:10:17.140Z,99935.89
2023-05-09T06:12:45.654Z,99935.34
2023-05-09T06:15:13.801Z,99942.00
2023-05-09T06:17:44.806Z,99944.09
2023-05-09T06:20:12.913Z,99948.06
2023-05-09T06:22:40.963Z,99940.08
2023-05-09T06:25:10.665Z,99935.68
2023-05-09T06:27:38.825Z,99933.42
2023-05-09T06:30:23.788Z,99927.80
2023-05-09T06:32:53.832Z,99927.66
2023-05-09T06:35:22.088Z,99926.39
2023-05-09T06:37:50.710Z,99920.60
2023-05-09T06:40:18.713Z,99919.05
2023-05-09T06:42:46.738Z,99916.51
2023-05-09T06:45:16.251Z,99916.22
2023-05-09T06:47:44.591Z,99910.34
2023-05-09T06:50:12.549Z,99908.28
2023-05-09T06:52:40.474Z,99903.64
2023-05-09T06:55:09.228Z,99900.44
2023-05-09T06:57:39.401Z,99902.88
2023-05-09T07:00:07.870Z,99901.40
2023-05-09T07:02:35.916Z,99899.30
2023-05-09T07:05:04.147Z,99905.09
2023-05-09T07:07:32.179Z,99900.23
2023-05-09T07:10:10.519Z,99899.75
2023-05-09T07:12:40.358Z,99893.55
2023-05-09T07:15:08.942Z,99891.81
2023-05-09T07:17:36.873Z,99887.55
2023-05-09T07:20:06.056Z,99888.55
2023-05-09T07:22:36.398Z,99885.63
2023-05-09T07:25:07.801Z,99885.98
2023-05-09T07:27:36.894Z,99883.21
2023-05-09T07:30:06.072Z,99885.02
2023-05-09T07:32:34.106Z,99880.11
2023-05-09T07:35:03.308Z,99877.02
2023-05-09T07:37:31.361Z,99877.15
2023-05-09T07:39:59.343Z,99879.75
2023-05-09T07:42:27.320Z,99877.30
2023-05-09T07:44:55.373Z,99871.59
2023-05-09T07:47:23.519Z,99864.18
2023-05-09T07:49:51.876Z,99859.27
2023-05-09T07:52:19.781Z,99857.12
2023-05-09T07:54:47.672Z,99854.02
2023-05-09T07:57:16.440Z,99849.77
2023-05-09T07:59:44.420Z,99848.08
2023-05-09T08:02:12.352Z,99845.19
2023-05-09T08:04:41.592Z,99846.94
2023-05-09T08:07:09.813Z,99842.65
2023-05-09T08:09:37.767Z,99838.30
2023-05-09T08:12:06.102Z,99837.79
2023-05-09T08:14:34.105Z,99836.42
2023-05-09T08:17:01.969Z,99833.33
2023-05-09T08:19:29.955Z,99834.18
2023-05-09T08:21:57.974Z,99828.62
2023-05-09T08:24:25.860Z,99825.94
2023-05-09T08:26:53.891Z,99823.41
2023-05-09T08:29:21.762Z,99822.39
2023-05-09T08:31:49.827Z,99816.70
2023-05-09T08:34:17.874Z,99818.60
2023-05-09T08:36:47.056Z,99809.47
2023-05-09T08:39:15.083Z,99812.39
2023-05-09T08:41:43.650Z,99807.20
2023-05-09T08:44:11.774Z,99807.96
2023-05-09T08:46:43.761Z,99798.72
2023-05-09T08:49:12.365Z,99798.50
2023-05-09T08:51:40.974Z,99795.67
2023-05-09T08:54:10.571Z,99789.28
2023-05-09T08:56:39.094Z,99789.59
2023-05-09T08:59:07.223Z,99781.73
2023-05-09T09:01:38.379Z,99782.02
2023-05-09T09:04:07.863Z,99785.27
2023-05-09T09:06:36.446Z,99772.12
2023-05-09T09:09:07.205Z,99781.40
2023-05-09T09:11:36.111Z,99782.23
2023-05-09T09:14:13.882Z,99781.02
2023-05-09T09:16:44.706Z,99778.46
2023-05-09T09:19:16.392Z,99778.30
2023-05-09T09:21:51.133Z,99775.61
2023-05-09T09:24:22.975Z,99776.70
2023-05-09T09:26:52.014Z,99774.34
2023-05-09T09:29:23.285Z,99772.18
2023-05-09T09:31:57.170Z,99768.92
2023-05-09T09:34:25.438Z,99764.08
2023-05-09T09:36:53.458Z,99764.16
2023-05-09T09:39:22.127Z,99755.97
2023-05-09T09:41:50.247Z,99754.26
2023-05-09T09:44:19.223Z,99753.41
2023-05-09T09:46:53.084Z,99754.89
2023-05-09T09:49:22.769Z,99748.31
2023-05-09T09:51:59.730Z,99740.85
2023-05-09T09:54:28.471Z,99734.61
2023-05-09T09:56:57.019Z,99739.81
2023-05-09T09:59:26.716Z,99743.73
2023-05-09T10:02:00.303Z,99737.94
2023-05-09T10:04:29.782Z,99735.67
2023-05-09T10:07:06.261Z,99735.42
2023-05-09T10:09:35.686Z,99740.92
2023-05-09T10:12:06.381Z,99732.25
2023-05-09T10:14:36.856Z,99732.30
2023-05-09T10:17:05.818Z,99726.95
2023-05-09T10:19:36.133Z,99720.60
2023-05-09T10:22:08.236Z,99720.06
2023-05-09T10:24:47.059Z,99717.85
2023-05-09T10:27:21.710Z,99714.28
2023-05-09T10:29:54.474Z,99707.62
2023-05-09T10:32:31.737Z,99699.98
2023-05-09T10:35:05.944Z,99694.88
2023-05-09T10:37:34.097Z,99694.54
2023-05-09T10:40:04.364Z,99698.31
2023-05-09T10:42:32.398Z,99698.33
2023-05-09T10:45:01.604Z,99697.53
2023-05-09T10:47:32.082Z,99690.92
2023-05-09T10:50:00.760Z,99689.71
2023-05-09T10:52:33.695Z,99684.34
2023-05-09T10:55:04.116Z,99682.77
2023-05-09T10:57:32.800Z,99681.25
2023-05-09T11:00:00.785Z,99678.63
2023-05-09T11:02:32.941Z,99676.24
2023-05-09T11:05:15.232Z,99670.71
2023-05-09T11:07:43.520Z,99666.19
2023-05-09T11:10:20.445Z,99666.14
2023-05-09T11:13:00.027Z,99664.48
2023-05-09T11:15:28.687Z,99654.55
2023-05-09T11:18:11.917Z,99653.95
2023-05-09T11:20:44.562Z,99651.20
2023-05-09T11:23:12.667Z,99640.34
2023-05-09T11:25:41.300Z,99644.45
2023-05-09T11:28:09.344Z,99645.02
2023-05-09T11:30:42.669Z,99635.23
2023-05-09T11:33:24.693Z,99626.17
2023-05-09T11:36:18.789Z,99624.80
2023-05-09T11:38:47.273Z,99619.14
2023-05-09T11:41:15.912Z,99617.08
2023-05-09T11:43:44.978Z,99615.20
2023-05-09T11:46:13.158Z,99610.19
2023-05-09T11:48:42.291Z,99608.55
2023-05-09T11:51:18.347Z,99607.11
2023-05-09T11:53:50.187Z,99607.02
2023-05-09T11:56:18.222Z,99601.48
2023-05-09T11:58:46.887Z,99592.27
2023-05-09T12:01:14.965Z,99596.44
2023-05-09T12:03:46.179Z,99588.31
2023-05-09T12:06:17.243Z,99584.75
2023-05-09T12:08:46.372Z,99584.23
2023-05-09T12:11:15.191Z,99577.37
2023-05-09T12:13:50.960Z,99576.56
2023-05-09T12:16:20.622Z,99575.20
2023-05-09T12:18:52.831Z,99574.80
2023-05-09T12:21:21.785Z,99576.77
2023-05-09T12:23:51.833Z,99577.98
2023-05-09T12:26:22.582Z,99569.42
2023-05-09T12:28:50.810Z,99564.24
2023-05-09T12:31:18.944Z,99562.56
2023-05-09T12:33:47.226Z,99560.89
2023-05-09T12:36:16.814Z,99558.67
2023-05-09T12:38:56.872Z,99554.02
2023-05-09T12:43:56.094Z,99541.98
2023-05-09T12:46:24.375Z,99537.74
2023-05-09T12:48:52.401Z,99532.91
2023-05-09T12:51:21.839Z,99524.98
2023-05-09T12:53:49.962Z,99518.83
2023-05-09T12:56:20.366Z,99514.45
2023-05-09T12:58:58.280Z,99516.86
2023-05-09T13:01:29.896Z,99508.87
2023-05-09T13:04:05.826Z,99504.65
2023-05-09T13:06:36.133Z,99498.89
2023-05-09T13:09:06.418Z,99495.65
2023-05-09T13:11:35.466Z,99495.45
2023-05-09T13:14:04.183Z,99494.49
2023-05-09T13:16:32.453Z,99486.37
2023-05-09T13:19:01.672Z,99482.15
2023-05-09T13:21:29.780Z,99474.80
2023-05-09T13:23:57.709Z,99478.44
2023-05-09T13:26:27.067Z,99478.20
2023-05-09T13:28:55.776Z,99471.02
2023-05-09T13:31:24.335Z,99466.21
2023-05-09T13:33:52.526Z,99461.21
2023-05-09T13:36:20.791Z,99459.23
2023-05-09T13:38:48.879Z,99457.18
2023-05-09T13:41:20.980Z,99454.96
2023-05-09T13:43:49.148Z,99445.77
2023-05-09T13:46:17.248Z,99441.77
2023-05-09T13:48:45.255Z,99438.77
2023-05-09T13:51:13.971Z,99435.12
2023-05-09T13:53:41.882Z,99431.54
2023-05-09T13:56:09.893Z,99426.05
2023-05-09T13:58:37.909Z,99418.48
2023-05-09T14:01:05.913Z,99416.29
2023-05-09T14:03:33.938Z,99408.78
2023-05-09T14:06:02.077Z,99411.29
2023-05-09T14:08:30.275Z,99411.85
2023-05-09T14:10:58.173Z,99405.19
2023-05-09T14:13:26.154Z,99396.95
2023-05-09T14:15:54.203Z,99387.65
2023-05-09T14:18:22.120Z,99380.84
2023-05-09T14:20:50.172Z,99382.55
2023-05-09T14:23:18.186Z,99384.48
2023-05-09T14:25:46.064Z,99383.55
2023-05-09T14:28:14.657Z,99377.47
2023-05-09T14:30:42.754Z,99369.56
2023-05-09T14:33:10.874Z,99365.89
2023-05-09T14:35:41.266Z,99369.52
2023-05-09T14:38:10.074Z,99366.50
2023-05-09T14:40:38.051Z,99362.48
2023-05-09T14:43:06.026Z,99367.13
2023-05-09T14:45:34.247Z,99364.91
2023-05-09T14:48:03.484Z,99364.30
2023-05-09T14:50:31.765Z,99356.95
2023-05-09T14:53:00.996Z,99354.38
2023-05-09T14:55:31.150Z,99353.02
2023-05-09T14:57:59.273Z,99351.86
2023-05-09T15:00:28.462Z,99347.81
2023-05-09T15:02:56.987Z,99351.84
2023-05-09T15:05:25.289Z,99349.19
2023-05-09T15:07:53.732Z,99345.95
2023-05-09T15:10:21.879Z,99346.75
2023-05-09T15:12:49.992Z,99342.52
2023-05-09T15:15:21.554Z,99339.42
2023-05-09T15:17:50.517Z,99334.56
2023-05-09T15:20:19.285Z,99327.89
2023-05-09T15:22:48.606Z,99322.33
2023-05-09T15:25:17.194Z,99321.89
2023-05-09T15:27:45.421Z,99318.16
2023-05-09T15:30:14.106Z,99315.34
2023-05-09T15:32:42.300Z,99309.59
2023-05-09T15:35:10.575Z,99309.39
2023-05-09T15:37:38.476Z,99311.17
2023-05-09T15:40:07.991Z,99308.05
2023-05-09T15:42:36.545Z,99304.33
2023-05-09T15:45:04.926Z,99301.50
2023-05-09T15:47:32.830Z,99297.34
2023-05-09T15:50:00.931Z,99295.90
2023-05-09T15:52:29.245Z,99292.64
2023-05-09T15:54:57.431Z,99291.48
2023-05-09T15:57:25.570Z,99293.00
2023-05-09T15:59:55.902Z,99290.08
2023-05-09T16:02:24.190Z,99286.85
2023-05-09T16:04:52.537Z,99285.88
2023-05-09T16:07:20.752Z,99284.23
2023-05-09T16:09:48.984Z,99288.37
2023-05-09T16:12:16.884Z,99285.71
2023-05-09T16:14:46.112Z,99280.13
2023-05-09T16:17:14.073Z,99277.00
2023-05-09T16:19:42.439Z,99278.04
2023-05-09T16:22:10.426Z,99271.68
2023-05-09T16:24:38.314Z,99265.89
2023-05-09T16:27:06.318Z,99263.00
2023-05-09T16:29:34.264Z,99260.17
2023-05-09T16:32:02.450Z,99261.28
2023-05-09T16:34:30.475Z,99255.42
2023-05-09T16:36:58.417Z,99256.77
2023-05-09T16:39:28.022Z,99249.93
2023-05-09T16:41:56.476Z,99242.29
2023-05-09T16:44:25.982Z,99238.59
2023-05-09T16:46:53.917Z,99234.44
2023-05-09T16:49:22.125Z,99231.05
2023-05-09T16:51:50.326Z,99232.27
2023-05-09T16:54:18.350Z,99230.02
2023-05-09T16:56:46.814Z,99227.19
2023-05-09T16:59:15.085Z,99219.90
2023-05-09T17:01:43.536Z,99219.39
2023-05-09T17:04:11.592Z,99221.91
2023-05-09T17:06:40.051Z,99218.11
2023-05-09T17:09:08.090Z,99211.92
2023-05-09T17:11:36.119Z,99212.23
2023-05-09T17:14:04.103Z,99213.31
2023-05-09T17:16:32.077Z,99207.98
2023-05-09T17:19:00.174Z,99210.27
2023-05-09T17:21:28.384Z,99209.52
2023-05-09T17:23:56.672Z,99210.40
2023-05-09T17:26:25.912Z,99207.48
2023-05-09T17:28:54.022Z,99203.73
2023-05-09T17:31:22.782Z,99203.70
2023-05-09T17:33:50.842Z,99203.37
2023-05-09T17:36:18.788Z,99203.76
2023-05-09T17:38:46.806Z,99204.55
2023-05-09T17:41:14.755Z,99205.32
2023-05-09T17:43:42.801Z,99204.77
2023-05-09T17:46:11.018Z,99204.57
2023-05-09T17:48:39.183Z,99205.98
2023-05-09T17:51:07.205Z,99203.48
2023-05-09T17:53:35.369Z,99202.86
2023-05-09T17:56:03.432Z,99201.41
2023-05-09T17:58:31.846Z,99206.27
2023-05-09T18:00:59.829Z,99207.17
2023-05-09T18:03:29.036Z,99206.58
2023-05-09T18:05:57.254Z,99206.60
2023-05-09T18:08:25.452Z,99207.15
2023-05-09T18:10:56.512Z,99213.61
2023-05-09T18:13:24.750Z,99212.02
2023-05-09T18:15:55.057Z,99210.91
2023-05-09T18:18:23.207Z,99214.98
2023-05-09T18:20:51.202Z,99216.41
2023-05-09T18:23:19.148Z,99216.98
2023-05-09T18:25:48.371Z,99220.41
2023-05-09T18:28:22.867Z,99220.00
2023-05-09T18:30:55.340Z,99219.90
2023-05-09T18:33:27.096Z,99217.98
2023-05-09T18:35:58.193Z,99216.45
2023-05-09T18:38:26.337Z,99213.01
2023-05-09T18:40:54.946Z,99216.05
2023-05-09T18:43:23.215Z,99218.36
2023-05-09T18:45:52.007Z,99222.55
2023-05-09T18:48:20.149Z,99225.86
2023-05-09T18:50:55.642Z,99230.52
2023-05-09T18:53:26.178Z,99232.97
2023-05-09T18:55:54.231Z,99234.05
2023-05-09T18:58:22.468Z,99232.67
2023-05-09T19:00:50.834Z,99231.06
2023-05-09T19:03:18.786Z,99231.41
2023-05-09T19:05:47.524Z,99229.80
2023-05-09T19:08:15.657Z,99231.15
2023-05-09T19:10:44.849Z,99232.35
2023-05-09T19:13:15.487Z,99238.31
2023-05-09T19:15:44.394Z,99234.91
2023-05-09T19:18:12.743Z,99234.09
2023-05-09T19:20:46.538Z,99234.32
2023-05-09T19:23:14.514Z,99232.11
2023-05-09T19:25:42.484Z,99231.49
2023-05-09T19:28:12.182Z,99229.95
2023-05-09T19:30:40.370Z,99228.40
2023-05-09T19:33:08.991Z,99227.55
2023-05-09T19:35:38.374Z,99225.10
2023-05-09T19:38:06.467Z,99224.95
2023-05-09T19:40:35.083Z,99222.59
2023-05-09T19:43:02.985Z,99221.08
2023-05-09T19:45:31.330Z,99216.70
2023-05-09T19:47:59.567Z,99218.66
2023-05-09T19:50:27.687Z,99215.57
2023-05-09T19:52:55.703Z,99212.45
2023-05-09T19:55:23.773Z,99212.72
2023-05-09T19:57:52.076Z,99209.08
2023-05-09T20:00:20.116Z,99209.95
2023-05-09T20:02:48.089Z,99208.22
2023-05-09T20:05:16.168Z,99208.09
2023-05-09T20:07:44.040Z,99204.09
2023-05-09T20:10:15.698Z,99201.83
2023-05-09T20:12:43.846Z,99200.81
2023-05-09T20:15:12.267Z,99198.73
2023-05-09T20:17:40.250Z,99199.96
2023-05-09T20:20:08.660Z,99198.79
2023-05-09T20:22:36.875Z,99195.52
2023-05-09T20:25:05.297Z,99195.57
2023-05-09T20:27:35.569Z,99190.73
2023-05-09T20:30:04.429Z,99190.86
2023-05-09T20:32:32.449Z,99188.25
2023-05-09T20:35:00.500Z,99187.94
2023-05-09T20:37:28.525Z,99189.42
2023-05-09T20:39:56.556Z,99183.70
2023-05-09T20:42:24.531Z,99183.05
2023-05-09T20:44:54.686Z,99181.02
2023-05-09T20:47:22.888Z,99178.30
2023-05-09T20:49:50.998Z,99180.30
2023-05-09T20:52:18.942Z,99184.39
2023-05-09T20:54:47.432Z,99177.40
2023-05-09T20:57:15.291Z,99175.51
2023-05-09T20:59:44.170Z,99170.09
2023-05-09T21:02:12.307Z,99169.71
2023-05-09T21:04:40.238Z,99167.73
2023-05-09T21:07:09.950Z,99164.14
2023-05-09T21:09:38.042Z,99161.77
2023-05-09T21:12:06.218Z,99158.50
2023-05-09T21:14:34.160Z,99156.45
2023-05-09T21:17:02.118Z,99155.95
2023-05-09T21:19:30.200Z,99152.28
2023-05-09T21:21:58.705Z,99150.21
2023-05-09T21:24:26.709Z,99148.23
2023-05-09T21:26:54.572Z,99146.84
2023-05-09T21:29:22.423Z,99138.31
2023-05-09T21:31:50.323Z,99132.63
2023-05-09T21:34:18.799Z,99135.59
2023-05-09T21:36:46.834Z,99132.43
2023-05-09T21:39:14.752Z,99127.21
2023-05-09T21:41:42.968Z,99126.20
2023-05-09T21:44:13.791Z,99131.16
2023-05-09T21:46:43.519Z,99132.04
2023-05-09T21:49:12.120Z,99128.34
2023-05-09T21:51:40.011Z,99124.48
2023-05-09T21:54:08.108Z,99123.83
2023-05-09T21:56:36.093Z,99121.19
2023-05-09T21:59:03.990Z,99121.05
2023-05-09T22:01:32.042Z,99125.33
2023-05-09T22:04:00.175Z,99129.95
2023-05-09T22:06:28.155Z,99127.95
2023-05-09T22:08:56.118Z,99126.34
2023-05-09T22:11:24.481Z,99123.80
2023-05-09T22:13:52.449Z,99125.04
2023-05-09T22:16:22.502Z,99125.25
2023-05-09T22:18:50.430Z,99125.99
2023-05-09T22:21:18.389Z,99125.12
2023-05-09T22:23:46.324Z,99120.95
2023-05-09T22:26:14.245Z,99118.52
2023-05-09T22:28:42.096Z,99115.60
2023-05-09T22:31:10.552Z,99109.36
2023-05-09T22:33:38.466Z,99110.48
2023-05-09T22:36:07.186Z,99109.13
2023-05-09T22:38:35.172Z,99108.48
2023-05-09T22:41:03.088Z,99110.33
2023-05-09T22:43:38.839Z,99109.41
2023-05-09T22:46:07.381Z,99106.95
2023-05-09T22:48:35.379Z,99104.99
2023-05-09T22:51:03.481Z,99103.27
2023-05-09T22:53:31.393Z,99099.27
2023-05-09T22:55:59.522Z,99097.35
2023-05-09T22:58:27.585Z,99094.52
2023-05-09T23:00:55.555Z,99090.70
2023-05-09T23:03:23.675Z,99089.61
2023-05-09T23:05:51.973Z,99086.79
2023-05-09T23:08:19.831Z,99085.85
2023-05-09T23:10:47.683Z,99084.39
2023-05-09T23:13:15.771Z,99084.48
2023-05-09T23:15:43.791Z,99080.86
2023-05-09T23:18:12.284Z,99081.82
2023-05-09T23:20:40.156Z,99080.88
2023-05-09T23:23:08.103Z,99081.13
2023-05-09T23:25:36.172Z,99079.88
2023-05-09T23:28:04.159Z,99077.77
2023-05-09T23:30:32.089Z,99074.77
2023-05-09T23:32:59.990Z,99073.36
2023-05-09T23:35:28.011Z,99072.86
2023-05-09T23:37:55.902Z,99071.63
2023-05-09T23:40:23.785Z,99068.33
2023-05-09T23:42:51.665Z,99067.79
2023-05-09T23:45:19.744Z,99065.20
2023-05-09T23:47:47.692Z,99058.73
2023-05-09T23:50:15.895Z,99057.98
2023-05-09T23:52:44.088Z,99053.36
2023-05-09T23:55:12.108Z,99049.43
2023-05-09T23:57:40.068Z,99044.89
